createdAt,value
2019-02-19T00:00:25.755Z,58.17
2019-02-19T00:02:54.038Z,53.50
2019-02-19T00:05:22.191Z,58.13
2019-02-19T00:07:50.368Z,51.77
2019-02-19T00:10:18.738Z,51.80
2019-02-19T00:12:46.970Z,55.43
2019-02-19T00:15:15.193Z,55.80
2019-02-19T00:17:43.540Z,52.27
2019-02-19T00:20:11.691Z,50.90
2019-02-19T00:22:39.848Z,50.17
2019-02-19T00:25:08.105Z,45.07
2019-02-19T00:27:36.308Z,53.70
2019-02-19T00:30:04.935Z,51.63
2019-02-19T00:32:33.196Z,48.63
2019-02-19T00:35:03.075Z,48.13
2019-02-19T00:37:32.242Z,51.93
2019-02-19T00:40:00.447Z,50.23
2019-02-19T00:42:28.605Z,51.07
2019-02-19T00:44:56.827Z,52.30
2019-02-19T00:47:25.030Z,50.17
2019-02-19T00:49:53.191Z,49.53
2019-02-19T00:52:21.379Z,43.47
2019-02-19T00:54:49.567Z,38.33
2019-02-19T00:57:17.710Z,56.33
2019-02-19T00:59:45.930Z,48.90
2019-02-19T01:02:14.277Z,47.13
2019-02-19T01:04:42.583Z,54.97
2019-02-19T01:07:10.730Z,47.57
2019-02-19T01:09:38.923Z,54.77
2019-02-19T01:12:07.154Z,54.10
2019-02-19T01:14:35.312Z,47.50
2019-02-19T01:17:03.558Z,46.57
2019-02-19T01:19:31.854Z,47.97
2019-02-19T01:22:00.012Z,45.47
2019-02-19T01:24:28.249Z,42.23
2019-02-19T01:26:56.399Z,53.83
2019-02-19T01:29:24.547Z,46.17
2019-02-19T01:31:52.743Z,55.83
2019-02-19T01:34:20.897Z,58.20
2019-02-19T01:36:49.058Z,62.03
2019-02-19T01:39:18.296Z,62.57
2019-02-19T01:41:46.507Z,62.57
2019-02-19T01:44:14.662Z,56.60
2019-02-19T01:46:43.127Z,62.57
2019-02-19T01:49:11.304Z,61.90
2019-02-19T01:51:39.454Z,55.27
2019-02-19T01:54:07.642Z,48.77
2019-02-19T01:56:35.946Z,46.73
2019-02-19T01:59:04.228Z,47.13
2019-02-19T02:01:32.426Z,42.67
2019-02-19T02:04:00.615Z,47.20
2019-02-19T02:06:28.769Z,50.40
2019-02-19T02:08:57.243Z,42.63
2019-02-19T02:11:25.459Z,43.80
2019-02-19T02:13:53.605Z,43.40
2019-02-19T02:16:21.795Z,46.43
2019-02-19T02:18:49.942Z,53.70
2019-02-19T02:21:18.207Z,49.33
2019-02-19T02:23:46.401Z,50.47
2019-02-19T02:26:14.679Z,44.93
2019-02-19T02:28:42.846Z,50.07
2019-02-19T02:31:11.076Z,55.27
2019-02-19T02:33:39.363Z,54.63
2019-02-19T02:36:07.518Z,56.00
2019-02-19T02:38:35.784Z,48.27
2019-02-19T02:41:04.300Z,52.40
2019-02-19T02:43:32.529Z,59.60
2019-02-19T02:46:00.766Z,57.50
2019-02-19T02:48:28.917Z,51.57
2019-02-19T02:50:57.066Z,54.37
2019-02-19T02:53:25.253Z,50.03
2019-02-19T02:55:53.407Z,44.93
2019-02-19T02:58:21.563Z,39.73
2019-02-19T03:00:49.763Z,42.97
2019-02-19T03:03:17.910Z,47.73
2019-02-19T03:06:00.657Z,43.50
2019-02-19T03:08:28.823Z,35.37
2019-02-19T03:10:56.964Z,41.47
2019-02-19T03:13:25.238Z,44.77
2019-02-19T03:16:02.220Z,44.17
2019-02-19T03:18:23.483Z,43.10
2019-02-19T03:20:51.716Z,44.43
2019-02-19T03:23:19.873Z,52.00
2019-02-19T03:25:48.021Z,50.33
2019-02-19T03:28:16.203Z,61.67
2019-02-19T03:30:44.368Z,64.10
2019-02-19T03:33:12.555Z,70.90
2019-02-19T03:35:40.825Z,64.90
2019-02-19T03:38:08.972Z,69.47
2019-02-19T03:40:37.185Z,78.97
2019-02-19T03:43:06.427Z,81.53
2019-02-19T03:45:34.579Z,84.03
2019-02-19T03:48:02.808Z,88.00
2019-02-19T03:50:31.002Z,88.43
2019-02-19T03:52:59.287Z,92.73
2019-02-19T03:55:27.439Z,96.57
2019-02-19T03:57:55.635Z,66.60
2019-02-19T04:00:23.788Z,56.33
2019-02-19T04:02:51.946Z,60.60
2019-02-19T04:05:20.283Z,61.33
2019-02-19T04:07:48.438Z,61.60
2019-02-19T04:10:16.828Z,51.33
2019-02-19T04:12:45.023Z,42.47
2019-02-19T04:15:13.175Z,49.37
2019-02-19T04:17:41.451Z,59.20
2019-02-19T04:20:09.647Z,59.23
2019-02-19T04:22:37.800Z,60.07
2019-02-19T04:25:05.961Z,54.87
2019-02-19T04:27:34.220Z,57.13
2019-02-19T04:30:02.372Z,60.37
2019-02-19T04:32:30.523Z,33.20
2019-02-19T04:34:58.717Z,45.97
2019-02-19T04:37:26.871Z,40.23
2019-02-19T04:39:55.027Z,38.87
2019-02-19T04:42:23.266Z,43.53
2019-02-19T04:44:52.384Z,62.20
2019-02-19T04:47:20.541Z,87.93
2019-02-19T04:49:48.891Z,73.27
2019-02-19T04:52:17.049Z,77.23
2019-02-19T04:54:45.340Z,74.13
2019-02-19T04:57:13.538Z,66.77
2019-02-19T04:59:41.919Z,76.13
2019-02-19T05:02:10.075Z,62.60
2019-02-19T05:04:38.267Z,72.50
2019-02-19T05:07:06.419Z,59.03
2019-02-19T05:09:34.581Z,71.57
2019-02-19T05:12:02.973Z,66.03
2019-02-19T05:14:31.112Z,65.83
2019-02-19T05:16:59.273Z,63.97
2019-02-19T05:19:27.466Z,58.70
2019-02-19T05:21:55.630Z,56.70
2019-02-19T05:24:23.787Z,57.13
2019-02-19T05:26:51.971Z,53.90
2019-02-19T05:29:20.192Z,50.90
2019-02-19T05:31:48.343Z,54.53
2019-02-19T05:34:16.522Z,51.37
2019-02-19T05:36:44.699Z,44.80
2019-02-19T05:39:12.853Z,38.67
2019-02-19T05:41:41.042Z,38.87
2019-02-19T05:44:09.317Z,39.33
2019-02-19T05:46:38.443Z,39.90
2019-02-19T05:49:06.711Z,40.73
2019-02-19T05:51:34.872Z,47.13
2019-02-19T05:54:03.053Z,58.13
2019-02-19T05:56:31.404Z,60.97
2019-02-19T05:58:59.631Z,59.30
2019-02-19T06:01:30.066Z,73.23
2019-02-19T06:03:58.275Z,78.50
2019-02-19T06:06:26.424Z,69.23
2019-02-19T06:08:54.637Z,78.33
2019-02-19T06:11:22.881Z,70.67
2019-02-19T06:13:51.107Z,78.70
2019-02-19T06:16:19.264Z,70.17
2019-02-19T06:18:47.488Z,81.53
2019-02-19T06:21:15.660Z,105.17
2019-02-19T06:23:43.890Z,101.37
2019-02-19T06:26:12.092Z,97.40
2019-02-19T06:28:40.344Z,106.53
2019-02-19T06:31:08.477Z,86.70
2019-02-19T06:33:37.202Z,67.90
2019-02-19T06:36:05.374Z,87.93
2019-02-19T06:38:33.537Z,130.00
2019-02-19T06:41:02.088Z,106.47
2019-02-19T06:43:30.371Z,102.80
2019-02-19T06:45:58.537Z,120.80
2019-02-19T06:48:27.619Z,123.13
2019-02-19T06:50:55.810Z,114.60
2019-02-19T06:53:23.958Z,120.47
2019-02-19T06:55:52.368Z,130.97
2019-02-19T06:58:20.526Z,140.00
2019-02-19T07:00:48.678Z,132.87
2019-02-19T07:03:18.522Z,125.87
2019-02-19T07:05:46.723Z,116.20
2019-02-19T07:08:16.518Z,119.07
2019-02-19T07:10:44.811Z,102.87
2019-02-19T07:13:13.356Z,90.97
2019-02-19T07:15:41.519Z,89.07
2019-02-19T07:18:09.716Z,100.73
2019-02-19T07:20:37.970Z,88.93
2019-02-19T07:23:06.490Z,92.23
2019-02-19T07:25:34.679Z,82.87
2019-02-19T07:28:02.906Z,70.53
2019-02-19T07:30:31.233Z,52.50
2019-02-19T07:32:59.559Z,56.20
2019-02-19T07:35:27.720Z,82.20
2019-02-19T07:37:55.867Z,71.93
2019-02-19T07:40:24.140Z,82.63
2019-02-19T07:42:52.290Z,104.60
2019-02-19T07:45:20.668Z,87.27
2019-02-19T07:47:49.156Z,53.97
2019-02-19T07:50:21.199Z,47.20
2019-02-19T07:52:49.360Z,61.53
2019-02-19T07:55:17.551Z,54.70
2019-02-19T07:57:45.891Z,36.03
2019-02-19T08:00:14.245Z,44.40
2019-02-19T08:02:42.431Z,44.40
2019-02-19T08:05:10.659Z,31.93
2019-02-19T08:07:38.813Z,38.27
2019-02-19T08:10:08.636Z,59.10
2019-02-19T08:12:37.223Z,68.13
2019-02-19T08:15:07.293Z,162.40
2019-02-19T08:17:35.488Z,121.83
2019-02-19T08:20:04.875Z,93.10
2019-02-19T08:22:33.276Z,80.77
2019-02-19T08:25:01.476Z,77.90
2019-02-19T08:27:29.635Z,85.47
2019-02-19T08:29:57.809Z,83.27
2019-02-19T08:32:29.242Z,63.93
2019-02-19T08:34:57.395Z,80.97
2019-02-19T08:37:25.554Z,41.00
2019-02-19T08:39:53.941Z,42.43
2019-02-19T08:42:24.431Z,48.40
2019-02-19T08:44:52.319Z,47.33
2019-02-19T08:47:20.568Z,56.00
2019-02-19T08:49:48.870Z,48.93
2019-02-19T08:52:18.822Z,49.40
2019-02-19T08:54:47.281Z,51.63
2019-02-19T08:57:15.695Z,53.57
2019-02-19T08:59:43.856Z,53.00
2019-02-19T09:02:12.206Z,49.67
2019-02-19T09:04:40.376Z,48.20
2019-02-19T09:07:08.525Z,74.60
2019-02-19T09:09:36.734Z,58.27
2019-02-19T09:12:04.895Z,73.57
2019-02-19T09:14:33.313Z,55.50
2019-02-19T09:17:01.757Z,58.63
2019-02-19T09:19:29.903Z,52.33
2019-02-19T09:21:58.495Z,87.77
2019-02-19T09:24:28.024Z,72.73
2019-02-19T09:26:56.155Z,54.77
2019-02-19T09:29:24.380Z,56.87
2019-02-19T09:31:53.655Z,62.43
2019-02-19T09:34:21.795Z,53.60
2019-02-19T09:36:50.090Z,35.93
2019-02-19T09:39:18.393Z,29.47
2019-02-19T09:41:49.508Z,25.83
2019-02-19T09:44:18.788Z,26.90
2019-02-19T09:46:46.916Z,31.53
2019-02-19T09:49:15.365Z,35.20
2019-02-19T09:51:45.495Z,29.37
2019-02-19T09:54:14.689Z,22.27
2019-02-19T09:56:44.460Z,57.63
2019-02-19T09:59:12.982Z,24.87
2019-02-19T10:01:41.243Z,25.97
2019-02-19T10:04:11.236Z,107.37
2019-02-19T10:06:41.287Z,129.83
2019-02-19T10:09:10.005Z,42.90
2019-02-19T10:11:38.164Z,34.33
2019-02-19T10:14:08.771Z,23.97
2019-02-19T10:16:41.649Z,67.73
2019-02-19T10:19:06.851Z,22.50
2019-02-19T10:21:35.341Z,18.97
2019-02-19T10:24:03.929Z,20.40
2019-02-19T10:26:32.231Z,29.43
2019-02-19T10:29:00.386Z,17.33
2019-02-19T10:31:28.589Z,13.70
2019-02-19T10:33:56.937Z,12.70
2019-02-19T10:36:25.404Z,15.67
2019-02-19T10:38:54.967Z,17.17
2019-02-19T10:41:23.311Z,17.90
2019-02-19T10:43:51.622Z,18.37
2019-02-19T10:46:19.807Z,17.17
2019-02-19T10:48:48.427Z,21.43
2019-02-19T10:51:16.859Z,15.80
2019-02-19T10:53:46.938Z,12.63
2019-02-19T10:56:16.064Z,13.93
2019-02-19T10:58:44.843Z,13.73
2019-02-19T11:01:13.179Z,13.03
2019-02-19T11:03:41.327Z,14.40
2019-02-19T11:06:09.751Z,13.23
2019-02-19T11:08:38.026Z,14.30
2019-02-19T11:11:06.467Z,13.70
2019-02-19T11:13:34.617Z,11.93
2019-02-19T11:16:03.491Z,13.80
2019-02-19T11:18:32.039Z,12.93
2019-02-19T11:21:00.584Z,14.03
2019-02-19T11:23:29.039Z,12.03
2019-02-19T11:25:57.455Z,14.67
2019-02-19T11:28:27.252Z,12.70
2019-02-19T11:30:55.621Z,11.30
2019-02-19T11:33:28.309Z,14.80
2019-02-19T11:35:56.477Z,13.60
2019-02-19T11:38:24.932Z,12.40
2019-02-19T11:40:53.088Z,16.63
2019-02-19T11:43:21.509Z,13.70
2019-02-19T11:45:49.704Z,13.58
2019-02-19T11:48:19.181Z,13.90
2019-02-19T11:50:47.391Z,13.88
2019-02-19T11:53:15.659Z,16.45
2019-02-19T11:55:43.822Z,19.30
2019-02-19T11:58:12.967Z,13.98
2019-02-19T12:00:43.095Z,13.48
2019-02-19T12:03:11.583Z,16.52
2019-02-19T12:05:39.744Z,20.95
2019-02-19T12:08:07.938Z,14.98
2019-02-19T12:10:36.259Z,14.38
2019-02-19T12:13:04.428Z,12.58
2019-02-19T12:15:35.158Z,16.70
2019-02-19T12:18:02.801Z,19.37
2019-02-19T12:20:30.951Z,17.05
2019-02-19T12:22:59.161Z,13.70
2019-02-19T12:25:27.307Z,14.45
2019-02-19T12:27:55.632Z,14.53
2019-02-19T12:30:24.326Z,16.07
2019-02-19T12:32:52.475Z,16.30
2019-02-19T12:35:20.636Z,15.35
2019-02-19T12:37:49.091Z,16.02
2019-02-19T12:40:17.267Z,18.37
2019-02-19T12:42:45.421Z,14.83
2019-02-19T12:45:14.575Z,17.67
2019-02-19T12:47:44.488Z,18.77
2019-02-19T12:50:19.957Z,15.90
2019-02-19T12:52:48.189Z,16.80
2019-02-19T12:55:16.353Z,16.30
2019-02-19T12:57:45.684Z,16.67
2019-02-19T13:00:16.501Z,16.73
2019-02-19T13:02:44.661Z,19.70
2019-02-19T13:05:13.981Z,19.00
2019-02-19T13:07:43.959Z,19.43
2019-02-19T13:10:12.188Z,20.50
2019-02-19T13:12:40.396Z,17.20
2019-02-19T13:15:12.937Z,20.47
2019-02-19T13:17:41.153Z,16.00
2019-02-19T13:20:10.780Z,16.63
2019-02-19T13:22:39.124Z,19.93
2019-02-19T13:25:08.281Z,14.53
2019-02-19T13:27:38.381Z,16.27
2019-02-19T13:30:08.332Z,38.63
2019-02-19T13:32:37.022Z,41.67
2019-02-19T13:35:06.672Z,23.80
2019-02-19T13:37:34.829Z,16.90
2019-02-19T13:40:03.367Z,24.70
2019-02-19T13:42:32.695Z,15.50
2019-02-19T13:45:02.902Z,16.17
2019-02-19T13:47:31.266Z,15.93
2019-02-19T13:49:59.642Z,23.77
2019-02-19T13:52:29.524Z,22.27
2019-02-19T13:54:58.258Z,18.10
2019-02-19T13:57:29.879Z,17.63
2019-02-19T13:59:58.039Z,20.87
2019-02-19T14:02:27.431Z,25.93
2019-02-19T14:04:56.068Z,18.17
2019-02-19T14:07:24.550Z,22.40
2019-02-19T14:09:53.031Z,22.73
2019-02-19T14:12:21.397Z,27.67
2019-02-19T14:14:51.634Z,19.70
2019-02-19T14:17:20.188Z,24.77
2019-02-19T14:19:50.226Z,28.63
2019-02-19T14:22:35.435Z,31.20
2019-02-19T14:25:05.933Z,18.73
2019-02-19T14:27:51.105Z,19.73
2019-02-19T14:30:39.065Z,18.87
2019-02-19T14:33:22.258Z,18.37
2019-02-19T14:35:52.276Z,21.43
2019-02-19T14:38:31.303Z,18.30
2019-02-19T14:41:04.660Z,21.23
2019-02-19T14:43:37.532Z,26.00
2019-02-19T14:46:16.049Z,23.43
2019-02-19T14:48:48.767Z,21.60
2019-02-19T14:51:36.692Z,20.40
2019-02-19T14:54:24.628Z,16.77
2019-02-19T14:57:11.637Z,18.43
2019-02-19T14:59:44.947Z,32.30
2019-02-19T15:02:31.395Z,27.90
2019-02-19T15:05:05.217Z,22.33
2019-02-19T15:07:35.227Z,22.30
2019-02-19T15:10:08.438Z,20.87
2019-02-19T15:12:48.291Z,21.60
2019-02-19T15:15:24.073Z,25.57
2019-02-19T15:17:55.367Z,30.57
2019-02-19T15:20:37.256Z,26.63
2019-02-19T15:23:16.406Z,30.90
2019-02-19T15:26:04.809Z,25.97
2019-02-19T15:28:41.031Z,29.57
2019-02-19T15:31:25.859Z,37.03
2019-02-19T15:33:55.726Z,54.37
2019-02-19T15:36:41.744Z,63.00
2019-02-19T15:39:14.731Z,246.23
2019-02-19T15:41:44.646Z,241.17
2019-02-19T15:44:17.473Z,163.17
2019-02-19T15:46:50.561Z,71.13
2019-02-19T15:49:37.154Z,49.87
2019-02-19T15:52:22.736Z,41.70
2019-02-19T15:54:54.627Z,45.30
2019-02-19T15:57:33.851Z,35.80
2019-02-19T16:00:20.219Z,31.77
2019-02-19T16:02:53.174Z,39.27
2019-02-19T16:05:36.051Z,36.33
2019-02-19T16:08:06.398Z,32.73
2019-02-19T16:10:36.201Z,101.30
2019-02-19T16:13:09.330Z,126.00
2019-02-19T16:15:45.276Z,84.13
2019-02-19T16:18:15.369Z,55.10
2019-02-19T16:20:54.330Z,83.23
2019-02-19T16:23:24.343Z,55.50
2019-02-19T16:25:54.151Z,73.47
2019-02-19T16:28:39.640Z,66.97
2019-02-19T16:31:12.277Z,62.73
2019-02-19T16:34:00.912Z,102.30
2019-02-19T16:36:36.714Z,99.93
2019-02-19T16:39:23.356Z,165.80
2019-02-19T16:41:53.254Z,172.90
2019-02-19T16:44:23.369Z,173.00
2019-02-19T16:47:11.035Z,268.23
2019-02-19T16:50:06.881Z,215.77
2019-02-19T16:52:40.758Z,242.57
2019-02-19T16:55:22.360Z,272.23
2019-02-19T16:57:52.665Z,192.67
2019-02-19T17:00:38.336Z,202.63
2019-02-19T17:03:08.888Z,320.43
2019-02-19T17:05:47.856Z,202.83
2019-02-19T17:08:27.776Z,225.90
2019-02-19T17:10:58.895Z,282.80
2019-02-19T17:13:47.519Z,266.30
2019-02-19T17:16:18.319Z,136.93
2019-02-19T17:19:06.604Z,134.90
2019-02-19T17:21:40.452Z,74.57
2019-02-19T17:24:10.686Z,84.80
2019-02-19T17:26:43.408Z,79.77
2019-02-19T17:29:26.243Z,109.77
2019-02-19T17:31:57.145Z,85.27
2019-02-19T17:34:45.040Z,77.03
2019-02-19T17:37:20.764Z,52.53
2019-02-19T17:39:53.385Z,57.33
2019-02-19T17:42:35.757Z,38.27
2019-02-19T17:45:15.894Z,43.87
2019-02-19T17:47:54.770Z,55.87
2019-02-19T17:50:42.151Z,52.67
2019-02-19T17:53:17.896Z,58.43
2019-02-19T17:55:48.142Z,65.23
2019-02-19T17:58:33.060Z,93.10
2019-02-19T18:01:15.775Z,98.33
2019-02-19T18:03:51.905Z,123.97
2019-02-19T18:06:37.134Z,109.23
2019-02-19T18:09:23.431Z,133.23
2019-02-19T18:11:59.693Z,73.70
2019-02-19T18:14:32.582Z,101.23
2019-02-19T18:17:02.581Z,52.70
2019-02-19T18:19:30.753Z,36.97
2019-02-19T18:21:59.121Z,72.83
2019-02-19T18:24:27.461Z,51.53
2019-02-19T18:26:55.896Z,43.10
2019-02-19T18:29:24.173Z,55.93
2019-02-19T18:31:52.436Z,56.83
2019-02-19T18:34:20.720Z,53.27
2019-02-19T18:36:48.922Z,58.13
2019-02-19T18:39:17.125Z,58.17
2019-02-19T18:41:45.460Z,64.33
2019-02-19T18:44:13.579Z,55.00
2019-02-19T18:46:41.860Z,58.50
2019-02-19T18:49:10.020Z,62.43
2019-02-19T18:51:38.177Z,56.57
2019-02-19T18:54:06.612Z,55.77
2019-02-19T18:56:34.993Z,60.73
2019-02-19T18:59:03.494Z,56.23
2019-02-19T19:01:31.697Z,44.87
2019-02-19T19:03:59.987Z,45.53
2019-02-19T19:06:28.574Z,94.70
2019-02-19T19:08:58.252Z,68.53
2019-02-19T19:11:28.976Z,62.63
2019-02-19T19:13:58.160Z,72.23
2019-02-19T19:16:26.551Z,59.83
2019-02-19T19:18:55.596Z,47.17
2019-02-19T19:21:24.294Z,48.33
2019-02-19T19:23:52.636Z,50.73
2019-02-19T19:26:21.046Z,53.00
2019-02-19T19:28:49.471Z,63.07
2019-02-19T19:31:18.013Z,77.07
2019-02-19T19:33:46.784Z,91.57
2019-02-19T19:36:15.398Z,65.30
2019-02-19T19:38:43.735Z,81.73
2019-02-19T19:41:12.353Z,80.43
2019-02-19T19:43:40.819Z,69.23
2019-02-19T19:46:11.304Z,226.93
2019-02-19T19:48:39.539Z,194.73
2019-02-19T19:51:17.106Z,192.97
2019-02-19T19:53:38.928Z,113.00
2019-02-19T19:56:08.424Z,91.07
2019-02-19T19:58:36.741Z,148.03
2019-02-19T20:01:05.619Z,98.60
2019-02-19T20:03:34.005Z,105.27
2019-02-19T20:06:04.332Z,89.70
2019-02-19T20:08:32.635Z,91.30
2019-02-19T20:11:02.306Z,87.07
2019-02-19T20:13:33.924Z,62.57
2019-02-19T20:16:02.501Z,80.83
2019-02-19T20:18:38.913Z,81.97
2019-02-19T20:21:01.127Z,111.77
2019-02-19T20:23:29.503Z,80.10
2019-02-19T20:25:57.875Z,72.20
2019-02-19T20:28:32.648Z,64.53
2019-02-19T20:31:04.448Z,63.27
2019-02-19T20:33:34.268Z,70.23
2019-02-19T20:36:02.648Z,67.87
2019-02-19T20:38:33.001Z,75.70
2019-02-19T20:41:01.680Z,109.37
2019-02-19T20:43:30.355Z,131.23
2019-02-19T20:45:59.652Z,122.07
2019-02-19T20:48:27.951Z,135.10
2019-02-19T20:50:56.109Z,133.63
2019-02-19T20:53:24.495Z,185.20
2019-02-19T20:55:52.727Z,150.37
2019-02-19T20:58:20.968Z,262.23
2019-02-19T21:00:49.525Z,248.33
2019-02-19T21:03:17.754Z,216.87
2019-02-19T21:05:46.275Z,197.93
2019-02-19T21:08:14.735Z,210.57
2019-02-19T21:10:43.017Z,234.13
2019-02-19T21:13:11.449Z,371.10
2019-02-19T21:15:41.056Z,426.60
2019-02-19T21:18:09.290Z,449.90
2019-02-19T21:20:38.063Z,483.23
2019-02-19T21:23:06.514Z,446.33
2019-02-19T21:25:37.157Z,307.73
2019-02-19T21:28:05.093Z,307.33
2019-02-19T21:30:38.228Z,292.30
2019-02-19T21:33:07.154Z,295.97
2019-02-19T21:35:37.606Z,280.53
2019-02-19T21:38:14.712Z,274.90
2019-02-19T21:40:45.798Z,305.07
2019-02-19T21:43:14.965Z,301.20
2019-02-19T21:45:44.675Z,306.07
2019-02-19T21:48:13.155Z,344.77
2019-02-19T21:50:41.888Z,324.30
2019-02-19T21:53:10.955Z,349.97
2019-02-19T21:55:39.135Z,352.57
2019-02-19T21:58:08.093Z,349.13
2019-02-19T22:00:36.895Z,402.10
2019-02-19T22:03:05.118Z,374.17
2019-02-19T22:05:34.152Z,179.70
2019-02-19T22:08:02.833Z,223.13
2019-02-19T22:10:31.418Z,246.10
2019-02-19T22:12:59.895Z,210.70
2019-02-19T22:15:28.174Z,210.20
2019-02-19T22:17:58.001Z,235.80
2019-02-19T22:20:32.411Z,292.17
2019-02-19T22:23:02.213Z,246.30
2019-02-19T22:25:30.866Z,251.83
2019-02-19T22:27:59.380Z,243.00
2019-02-19T22:30:27.697Z,237.00
2019-02-19T22:32:57.759Z,237.40
2019-02-19T22:35:26.021Z,199.30
2019-02-19T22:37:54.361Z,75.70
2019-02-19T22:40:22.776Z,78.60
2019-02-19T22:42:51.456Z,152.00
2019-02-19T22:45:19.633Z,128.13
2019-02-19T22:47:53.394Z,149.07
2019-02-19T22:50:17.792Z,146.10
2019-02-19T22:52:46.222Z,151.93
2019-02-19T22:55:27.981Z,115.93
2019-02-19T22:57:56.330Z,126.50
2019-02-19T23:00:45.674Z,132.30
2019-02-19T23:03:14.551Z,159.87
2019-02-19T23:05:42.935Z,163.20
2019-02-19T23:08:11.305Z,140.33
2019-02-19T23:10:39.944Z,106.10
2019-02-19T23:13:08.300Z,111.87
2019-02-19T23:15:36.503Z,123.77
2019-02-19T23:18:04.651Z,124.77
2019-02-19T23:20:34.016Z,145.40
2019-02-19T23:23:02.542Z,136.17
2019-02-19T23:25:30.692Z,137.83
2019-02-19T23:27:58.856Z,124.93
2019-02-19T23:30:27.414Z,118.47
2019-02-19T23:32:56.046Z,130.33
2019-02-19T23:35:28.874Z,114.63
2019-02-19T23:37:57.419Z,105.33
2019-02-19T23:40:25.845Z,97.40
2019-02-19T23:42:54.286Z,101.63
2019-02-19T23:45:22.646Z,101.53
2019-02-19T23:47:50.975Z,106.67
2019-02-19T23:50:19.609Z,103.23
2019-02-19T23:52:48.027Z,102.00
2019-02-19T23:55:16.319Z,107.70
2019-02-19T23:57:44.628Z,108.17
